Time;durP1;ratioP1;P1;durP2;ratioP2;P2;SDS_P1;SDS_P2;PMS_P1;PMS_P2;Temp;Humidity;BMP_temperature;BMP_pressure;BME280_temperature;BME280_humidity;BME280_pressure;Samples;Min_cycle;Max_cycle;Signal;HPM_P1;HPM_P2
2023/04/13 00:00:37;;;;;;;;;;;8.80;99.90;;;;;;5034838;28;20350;-66
2023/04/13 00:03:03;;;;;;;;;;;8.70;99.90;;;;;;5034639;28;20258;-66
2023/04/13 00:05:29;;;;;;;;;;;8.70;99.90;;;;;;5034199;28;19912;-65
2023/04/13 00:07:55;;;;;;;;;;;8.70;99.90;;;;;;5033822;28;19913;-66
2023/04/13 00:10:21;;;;;;;;;;;8.70;99.90;;;;;;5034168;28;19905;-66
2023/04/13 00:12:46;;;;;;;;;;;8.70;99.90;;;;;;5033982;28;20370;-65
2023/04/13 00:15:16;;;;;;;;;;;8.50;99.90;;;;;;5034029;28;19905;-65
2023/04/13 00:17:42;;;;;;;;;;;8.50;99.90;;;;;;5034276;28;19952;-65
2023/04/13 00:20:11;;;;;;;;;;;8.50;99.90;;;;;;5033387;28;19927;-65
2023/04/13 00:22:37;;;;;;;;;;;8.50;99.90;;;;;;5016041;28;20404;-65
2023/04/13 00:25:03;;;;;;;;;;;8.50;99.90;;;;;;5033715;28;20031;-66
2023/04/13 00:27:29;;;;;;;;;;;8.50;99.90;;;;;;5033953;28;20293;-67
2023/04/13 00:29:57;;;;;;;;;;;8.60;99.90;;;;;;5034638;28;20266;-65
2023/04/13 00:32:23;;;;;;;;;;;8.50;99.90;;;;;;5034271;28;19955;-65
2023/04/13 00:34:49;;;;;;;;;;;8.50;99.90;;;;;;5016006;28;20354;-65
2023/04/13 00:37:14;;;;;;;;;;;8.50;99.90;;;;;;5016046;28;19996;-65
2023/04/13 00:39:42;;;;;;;;;;;8.50;99.90;;;;;;5015696;28;20317;-65
2023/04/13 00:42:08;;;;;;;;;;;8.50;99.90;;;;;;5015960;28;19905;-66
2023/04/13 00:44:34;;;;;;;;;;;8.40;99.90;;;;;;5016306;28;20358;-65
2023/04/13 00:46:59;;;;;;;;;;;8.40;99.90;;;;;;5033472;28;20366;-65
2023/04/13 00:49:25;;;;;;;;;;;8.40;99.90;;;;;;5033853;28;20046;-66
2023/04/13 00:51:51;;;;;;;;;;;8.40;99.90;;;;;;5033741;28;20373;-65
2023/04/13 00:54:17;;;;;;;;;;;8.50;99.90;;;;;;5033774;28;19941;-67
2023/04/13 00:56:42;;;;;;;;;;;8.40;99.90;;;;;;5015752;28;19963;-66
2023/04/13 00:59:11;;;;;;;;;;;8.50;99.90;;;;;;5033586;28;19905;-65
2023/04/13 01:01:49;;;;;;;;;;;8.50;99.90;;;;;;5033686;28;19912;-66
2023/04/13 01:04:17;;;;;;;;;;;8.50;99.90;;;;;;5033746;28;20273;-66
2023/04/13 01:06:48;;;;;;;;;;;8.40;99.90;;;;;;5015707;28;19996;-67
2023/04/13 01:09:16;;;;;;;;;;;8.40;99.90;;;;;;5033503;28;19905;-66
2023/04/13 01:12:08;;;;;;;;;;;8.40;99.90;;;;;;5034276;28;19916;-66
2023/04/13 01:14:40;;;;;;;;;;;8.30;99.90;;;;;;5004188;28;19912;-66
2023/04/13 01:17:13;;;;;;;;;;;8.30;99.90;;;;;;5034708;28;19905;-65
2023/04/13 01:19:39;;;;;;;;;;;8.30;99.90;;;;;;5016532;28;20270;-65
2023/04/13 01:22:06;;;;;;;;;;;8.30;99.90;;;;;;5033779;28;19999;-66
2023/04/13 01:24:39;;;;;;;;;;;8.20;99.90;;;;;;5015798;28;19909;-65
2023/04/13 01:27:16;;;;;;;;;;;8.20;99.90;;;;;;5033906;28;19905;-67
2023/04/13 01:29:44;;;;;;;;;;;8.10;99.90;;;;;;5017413;28;20259;-65
2023/04/13 01:32:10;;;;;;;;;;;8.10;99.90;;;;;;5038164;28;19909;-66
2023/04/13 01:34:36;;;;;;;;;;;8.10;99.90;;;;;;5037761;28;19905;-66
2023/04/13 01:37:03;;;;;;;;;;;8.10;99.90;;;;;;5038389;28;19959;-65
2023/04/13 01:39:30;;;;;;;;;;;8.10;99.90;;;;;;5039649;28;19999;-66
2023/04/13 01:41:56;;;;;;;;;;;8.10;99.90;;;;;;5041150;28;19963;-67
2023/04/13 01:44:22;;;;;;;;;;;8.10;99.90;;;;;;5041153;28;19905;-66
2023/04/13 01:46:51;;;;;;;;;;;8.10;99.90;;;;;;5039282;28;19905;-66
2023/04/13 01:49:19;;;;;;;;;;;8.10;99.90;;;;;;5022156;28;20323;-66
2023/04/13 01:51:47;;;;;;;;;;;8.10;99.90;;;;;;5020768;28;20391;-66
2023/04/13 01:54:19;;;;;;;;;;;8.20;99.90;;;;;;5038896;28;19909;-66
2023/04/13 01:56:44;;;;;;;;;;;8.20;99.90;;;;;;5039238;28;19999;-66
2023/04/13 01:59:10;;;;;;;;;;;8.30;99.90;;;;;;5036627;28;19947;-66
2023/04/13 02:01:39;;;;;;;;;;;8.30;99.90;;;;;;5019849;28;20289;-66
2023/04/13 02:04:06;;;;;;;;;;;8.30;99.90;;;;;;5019159;28;19905;-65
2023/04/13 02:06:32;;;;;;;;;;;8.20;99.90;;;;;;5036991;28;19952;-67
2023/04/13 02:08:58;;;;;;;;;;;8.30;99.90;;;;;;5076261;22;20304;-67
2023/04/13 02:11:24;;;;;;;;;;;8.40;99.90;;;;;;5055987;28;19915;-66
2023/04/13 02:13:50;;;;;;;;;;;8.30;99.90;;;;;;5038275;28;20333;-66
2023/04/13 02:16:16;;;;;;;;;;;8.30;99.90;;;;;;5057210;28;19999;-66
2023/04/13 02:18:41;;;;;;;;;;;8.30;99.90;;;;;;5056511;28;19991;-66
2023/04/13 02:21:10;;;;;;;;;;;8.20;99.90;;;;;;5056278;28;20262;-66
2023/04/13 02:23:37;;;;;;;;;;;8.40;99.90;;;;;;5055257;28;19909;-66
2023/04/13 02:26:03;;;;;;;;;;;8.40;99.90;;;;;;5058713;28;19912;-66
2023/04/13 02:28:29;;;;;;;;;;;8.50;99.90;;;;;;5057267;28;19916;-67
2023/04/13 02:30:55;;;;;;;;;;;8.40;99.90;;;;;;5039422;28;19917;-67
2023/04/13 02:33:20;;;;;;;;;;;8.40;99.90;;;;;;5038568;28;19948;-67
2023/04/13 02:35:47;;;;;;;;;;;8.50;99.90;;;;;;5055880;28;20003;-67
2023/04/13 02:38:14;;;;;;;;;;;8.60;99.90;;;;;;5052606;28;19905;-67
2023/04/13 02:40:42;;;;;;;;;;;8.70;99.90;;;;;;5036547;28;19905;-67
2023/04/13 02:43:07;;;;;;;;;;;8.70;99.90;;;;;;5035993;28;19905;-66
2023/04/13 02:45:33;;;;;;;;;;;8.70;99.90;;;;;;5036455;28;19959;-67
2023/04/13 02:47:58;;;;;;;;;;;8.80;99.90;;;;;;5036264;28;19991;-66
2023/04/13 02:50:24;;;;;;;;;;;8.80;99.90;;;;;;5036319;28;20211;-66
2023/04/13 02:52:49;;;;;;;;;;;8.70;99.90;;;;;;5035748;28;19905;-67
2023/04/13 02:55:15;;;;;;;;;;;8.70;99.90;;;;;;5035383;28;20006;-67
2023/04/13 02:57:43;;;;;;;;;;;8.60;99.90;;;;;;5035673;28;19972;-67
2023/04/13 03:00:09;;;;;;;;;;;8.70;99.90;;;;;;5035664;28;19909;-67
2023/04/13 03:02:36;;;;;;;;;;;8.70;99.90;;;;;;5035109;28;19913;-67
2023/04/13 03:05:04;;;;;;;;;;;8.80;99.90;;;;;;5035073;28;20277;-67
2023/04/13 03:07:30;;;;;;;;;;;8.80;99.90;;;;;;5017505;28;20262;-66
2023/04/13 03:09:56;;;;;;;;;;;8.80;99.90;;;;;;5035080;28;20264;-67
2023/04/13 03:12:22;;;;;;;;;;;8.80;99.90;;;;;;5035221;28;19916;-67
2023/04/13 03:14:48;;;;;;;;;;;8.80;99.90;;;;;;5035213;28;19904;-66
2023/04/13 03:17:15;;;;;;;;;;;8.70;99.90;;;;;;5034960;28;19948;-67
2023/04/13 03:19:41;;;;;;;;;;;8.70;99.90;;;;;;5035091;28;20444;-67
2023/04/13 03:22:07;;;;;;;;;;;8.70;99.90;;;;;;5035049;28;19944;-67
2023/04/13 03:24:34;;;;;;;;;;;8.70;99.90;;;;;;5034821;28;19905;-67
2023/04/13 03:26:59;;;;;;;;;;;8.80;99.90;;;;;;5017059;28;19909;-67
2023/04/13 03:29:24;;;;;;;;;;;8.70;99.90;;;;;;5034606;28;19905;-67
2023/04/13 03:31:50;;;;;;;;;;;8.70;99.90;;;;;;5034523;28;19909;-67
2023/04/13 03:34:16;;;;;;;;;;;8.70;99.90;;;;;;5034472;28;19912;-67
2023/04/13 03:36:42;;;;;;;;;;;8.70;99.90;;;;;;5034420;28;19998;-67
2023/04/13 03:39:07;;;;;;;;;;;8.70;99.90;;;;;;5034085;28;20274;-67
2023/04/13 03:41:33;;;;;;;;;;;8.70;99.90;;;;;;5034532;28;20004;-67
2023/04/13 03:43:58;;;;;;;;;;;8.70;99.90;;;;;;5034621;28;19920;-67
2023/04/13 03:46:24;;;;;;;;;;;8.70;99.90;;;;;;5016908;28;19905;-66
2023/04/13 03:48:50;;;;;;;;;;;8.70;99.90;;;;;;5016615;28;20258;-66
2023/04/13 03:51:15;;;;;;;;;;;8.70;99.90;;;;;;5034357;28;19916;-67
2023/04/13 03:53:41;;;;;;;;;;;8.70;99.90;;;;;;5033138;28;19936;-67
2023/04/13 03:56:06;;;;;;;;;;;8.70;99.90;;;;;;5034009;28;19905;-67
2023/04/13 03:58:32;;;;;;;;;;;8.60;99.90;;;;;;5034072;28;20365;-67
2023/04/13 04:00:57;;;;;;;;;;;8.50;99.90;;;;;;5034330;28;19908;-67
2023/04/13 04:03:24;;;;;;;;;;;8.60;99.90;;;;;;5016432;28;19905;-66
2023/04/13 04:05:50;;;;;;;;;;;8.60;99.90;;;;;;5016259;28;19916;-67
2023/04/13 04:08:15;;;;;;;;;;;8.40;99.90;;;;;;5015722;28;20251;-67
2023/04/13 04:10:41;;;;;;;;;;;8.60;99.90;;;;;;5034160;28;19913;-67
2023/04/13 04:13:06;;;;;;;;;;;8.60;99.90;;;;;;5034198;28;19905;-67
2023/04/13 04:15:32;;;;;;;;;;;8.60;99.90;;;;;;5016433;28;20426;-67
2023/04/13 04:17:58;;;;;;;;;;;8.60;99.90;;;;;;5033736;28;20352;-67
2023/04/13 04:20:23;;;;;;;;;;;8.70;99.90;;;;;;5033841;28;19905;-67
2023/04/13 04:22:50;;;;;;;;;;;8.70;99.90;;;;;;5016326;28;19908;-67
2023/04/13 04:25:20;;;;;;;;;;;8.80;99.90;;;;;;5018605;28;19905;-67
2023/04/13 04:27:50;;;;;;;;;;;8.80;99.90;;;;;;5035220;28;19928;-67
2023/04/13 04:30:17;;;;;;;;;;;8.80;99.90;;;;;;5018223;28;19905;-67
2023/04/13 04:32:43;;;;;;;;;;;8.80;99.90;;;;;;5017532;28;19909;-67
2023/04/13 04:35:09;;;;;;;;;;;8.80;99.90;;;;;;5034879;28;20008;-67
2023/04/13 04:37:36;;;;;;;;;;;8.80;99.90;;;;;;5035253;28;19905;-66
2023/04/13 04:40:06;;;;;;;;;;;8.80;99.90;;;;;;5035619;28;19905;-66
2023/04/13 04:42:32;;;;;;;;;;;8.80;99.90;;;;;;5036274;28;19905;-66
2023/04/13 04:44:57;;;;;;;;;;;8.80;99.90;;;;;;5016942;28;19973;-66
2023/04/13 04:47:23;;;;;;;;;;;8.80;99.90;;;;;;5035791;28;19905;-66
2023/04/13 04:49:48;;;;;;;;;;;8.90;99.90;;;;;;5018473;28;19980;-67
2023/04/13 04:52:14;;;;;;;;;;;8.90;99.90;;;;;;5017238;28;20010;-67
2023/04/13 04:54:40;;;;;;;;;;;8.90;99.90;;;;;;5034867;28;19905;-67
2023/04/13 04:57:09;;;;;;;;;;;8.90;99.90;;;;;;5035314;28;19971;-67
2023/04/13 04:59:35;;;;;;;;;;;8.90;99.90;;;;;;5034998;28;19905;-67
2023/04/13 05:02:00;;;;;;;;;;;8.80;99.90;;;;;;5035791;28;19951;-66
2023/04/13 05:04:26;;;;;;;;;;;8.70;99.90;;;;;;5016231;28;19905;-66
2023/04/13 05:06:51;;;;;;;;;;;8.80;99.90;;;;;;5037395;28;19917;-66
2023/04/13 05:09:19;;;;;;;;;;;8.80;99.90;;;;;;5037737;28;19913;-68
2023/04/13 05:11:44;;;;;;;;;;;8.80;99.90;;;;;;5021070;28;19909;-67
2023/04/13 05:14:10;;;;;;;;;;;8.80;99.90;;;;;;5039071;28;19964;-66
2023/04/13 05:16:36;;;;;;;;;;;8.80;99.90;;;;;;5043797;28;19905;-67
2023/04/13 05:19:04;;;;;;;;;;;8.90;99.90;;;;;;5038716;28;19967;-68
2023/04/13 05:21:29;;;;;;;;;;;8.80;99.90;;;;;;5020113;28;19909;-67
2023/04/13 05:23:55;;;;;;;;;;;8.80;99.90;;;;;;5037181;28;19912;-68
2023/04/13 05:26:21;;;;;;;;;;;8.80;99.90;;;;;;5037464;28;19974;-67
2023/04/13 05:28:46;;;;;;;;;;;8.90;99.90;;;;;;5019487;28;19905;-67
2023/04/13 05:31:12;;;;;;;;;;;8.90;99.90;;;;;;5019150;28;19958;-66
2023/04/13 05:33:37;;;;;;;;;;;8.90;99.90;;;;;;5019143;28;19916;-66
2023/04/13 05:36:03;;;;;;;;;;;9.00;99.90;;;;;;5036796;28;19928;-67
2023/04/13 05:38:29;;;;;;;;;;;9.00;99.90;;;;;;5036542;28;20357;-67
2023/04/13 05:40:54;;;;;;;;;;;9.00;99.90;;;;;;5037081;28;19948;-66
2023/04/13 05:43:19;;;;;;;;;;;9.10;99.90;;;;;;5019832;28;20012;-68
2023/04/13 05:45:45;;;;;;;;;;;9.10;99.90;;;;;;5038792;28;19909;-67
2023/04/13 05:48:11;;;;;;;;;;;9.10;99.90;;;;;;5036458;28;19992;-66
2023/04/13 05:50:36;;;;;;;;;;;9.10;99.90;;;;;;5036756;28;19905;-66
2023/04/13 05:53:04;;;;;;;;;;;9.10;99.90;;;;;;5037492;28;19955;-66
2023/04/13 05:55:31;;;;;;;;;;;9.10;99.90;;;;;;5027516;28;20265;-67
2023/04/13 05:57:56;;;;;;;;;;;9.00;99.90;;;;;;5031266;28;20288;-66
2023/04/13 06:00:22;;;;;;;;;;;8.90;99.90;;;;;;5039010;28;19912;-66
2023/04/13 06:02:47;;;;;;;;;;;9.00;99.90;;;;;;5057741;28;20353;-67
2023/04/13 06:05:17;;;;;;;;;;;9.00;99.90;;;;;;5057167;28;20310;-65
2023/04/13 06:07:43;;;;;;;;;;;9.00;99.90;;;;;;5057431;28;19919;-68
2023/04/13 06:10:09;;;;;;;;;;;9.00;99.90;;;;;;5019147;28;19952;-66
2023/04/13 06:12:37;;;;;;;;;;;8.90;99.90;;;;;;5018988;28;19944;-67
2023/04/13 06:15:03;;;;;;;;;;;8.90;99.90;;;;;;5018963;28;20285;-67
2023/04/13 06:17:28;;;;;;;;;;;9.00;99.90;;;;;;5034682;28;19905;-67
2023/04/13 06:19:54;;;;;;;;;;;9.00;99.90;;;;;;5035886;28;20285;-68
2023/04/13 06:22:20;;;;;;;;;;;9.00;99.90;;;;;;5036280;28;20361;-69
2023/04/13 06:24:46;;;;;;;;;;;8.90;99.90;;;;;;5035899;28;19909;-67
2023/04/13 06:27:12;;;;;;;;;;;8.90;99.90;;;;;;5062520;28;20428;-67
2023/04/13 06:29:39;;;;;;;;;;;9.00;99.90;;;;;;5056891;28;19928;-68
2023/04/13 06:32:05;;;;;;;;;;;9.10;99.90;;;;;;5053344;28;19913;-66
2023/04/13 06:34:30;;;;;;;;;;;9.20;99.90;;;;;;5054701;28;19909;-68
2023/04/13 06:36:56;;;;;;;;;;;9.30;99.90;;;;;;5035684;28;20312;-68
2023/04/13 06:39:22;;;;;;;;;;;9.20;99.90;;;;;;5036838;28;20323;-68
2023/04/13 06:41:47;;;;;;;;;;;9.20;99.90;;;;;;5037181;28;20254;-68
2023/04/13 06:44:13;;;;;;;;;;;9.30;99.90;;;;;;5054262;28;19936;-66
2023/04/13 06:46:38;;;;;;;;;;;9.40;99.90;;;;;;5054375;28;20101;-68
2023/04/13 06:49:04;;;;;;;;;;;9.60;99.90;;;;;;5054577;28;19905;-68
2023/04/13 06:51:30;;;;;;;;;;;9.70;99.90;;;;;;5054884;28;19920;-69
2023/04/13 06:53:55;;;;;;;;;;;9.70;99.90;;;;;;5055343;28;19916;-69
2023/04/13 06:56:21;;;;;;;;;;;9.70;99.90;;;;;;5054984;28;19931;-69
2023/04/13 06:58:46;;;;;;;;;;;9.80;99.90;;;;;;5054954;28;19908;-67
2023/04/13 07:01:12;;;;;;;;;;;10.00;99.90;;;;;;5037719;28;20414;-67
2023/04/13 07:03:37;;;;;;;;;;;10.10;99.90;;;;;;5037439;28;19904;-68
2023/04/13 07:06:03;;;;;;;;;;;10.20;99.90;;;;;;5055123;28;20364;-67
2023/04/13 07:08:30;;;;;;;;;;;10.20;99.90;;;;;;5049205;28;19917;-67
2023/04/13 07:10:56;;;;;;;;;;;10.20;99.90;;;;;;5034561;28;19979;-68
2023/04/13 07:13:23;;;;;;;;;;;10.10;99.90;;;;;;5035046;28;20306;-66
2023/04/13 07:15:49;;;;;;;;;;;10.20;99.90;;;;;;5035076;28;19908;-66
2023/04/13 07:18:14;;;;;;;;;;;10.30;99.90;;;;;;5017816;28;19967;-70
2023/04/13 07:20:40;;;;;;;;;;;10.30;99.90;;;;;;5020456;28;19904;-68
2023/04/13 07:23:06;;;;;;;;;;;10.50;99.90;;;;;;5036656;28;20004;-68
2023/04/13 07:25:33;;;;;;;;;;;10.60;99.90;;;;;;5019148;28;19951;-68
2023/04/13 07:27:58;;;;;;;;;;;10.60;99.90;;;;;;5019947;28;19909;-70
2023/04/13 07:30:24;;;;;;;;;;;10.70;99.90;;;;;;5035985;28;19909;-68
2023/04/13 07:32:49;;;;;;;;;;;10.60;99.90;;;;;;5036016;28;19912;-67
2023/04/13 07:35:15;;;;;;;;;;;10.80;99.90;;;;;;5036077;28;20358;-68
2023/04/13 07:37:41;;;;;;;;;;;10.90;99.90;;;;;;5018846;28;20336;-69
2023/04/13 07:40:07;;;;;;;;;;;11.00;99.90;;;;;;5037094;28;19912;-68
2023/04/13 07:42:32;;;;;;;;;;;11.00;99.90;;;;;;5036672;28;20274;-68
2023/04/13 07:44:58;;;;;;;;;;;11.10;99.90;;;;;;5023186;28;19908;-67
2023/04/13 07:47:23;;;;;;;;;;;11.30;99.90;;;;;;5039623;28;19905;-67
2023/04/13 07:49:49;;;;;;;;;;;11.40;99.90;;;;;;5018242;28;20289;-67
2023/04/13 07:52:14;;;;;;;;;;;11.60;99.90;;;;;;5035041;28;19976;-66
2023/04/13 07:54:40;;;;;;;;;;;11.70;99.90;;;;;;5017133;28;19909;-68
2023/04/13 07:57:05;;;;;;;;;;;11.60;99.90;;;;;;5035589;28;20247;-68
2023/04/13 07:59:32;;;;;;;;;;;11.60;99.90;;;;;;5036111;28;20018;-68
2023/04/13 08:01:58;;;;;;;;;;;11.60;99.90;;;;;;5017864;28;19954;-68
2023/04/13 08:04:23;;;;;;;;;;;11.80;99.90;;;;;;5018587;28;19995;-68
2023/04/13 08:06:49;;;;;;;;;;;11.90;99.90;;;;;;5017418;28;19913;-68
2023/04/13 08:09:14;;;;;;;;;;;11.80;99.90;;;;;;5057245;23;20454;-67
2023/04/13 08:11:43;;;;;;;;;;;11.70;99.90;;;;;;5034450;28;19913;-67
2023/04/13 08:14:10;;;;;;;;;;;11.50;99.90;;;;;;5034040;28;19905;-67
2023/04/13 08:16:36;;;;;;;;;;;11.30;99.90;;;;;;5016435;28;20273;-68
2023/04/13 08:19:01;;;;;;;;;;;11.00;99.90;;;;;;5034539;28;19912;-67
2023/04/13 08:21:28;;;;;;;;;;;10.80;99.90;;;;;;5017512;28;19967;-67
2023/04/13 08:23:53;;;;;;;;;;;10.50;99.90;;;;;;5034233;28;19943;-66
2023/04/13 08:26:19;;;;;;;;;;;10.40;99.90;;;;;;5031286;28;19933;-66
2023/04/13 08:28:46;;;;;;;;;;;10.30;99.90;;;;;;5012839;28;19981;-71
2023/04/13 08:31:12;;;;;;;;;;;10.30;99.90;;;;;;5033837;28;20092;-69
2023/04/13 08:33:37;;;;;;;;;;;10.30;99.90;;;;;;5033625;28;19948;-67
2023/04/13 08:36:03;;;;;;;;;;;10.30;99.90;;;;;;5034316;28;19905;-67
2023/04/13 08:38:28;;;;;;;;;;;10.40;99.90;;;;;;5011361;28;19905;-67
2023/04/13 08:40:54;;;;;;;;;;;10.30;99.90;;;;;;5040297;28;19992;-68
2023/04/13 08:43:20;;;;;;;;;;;10.30;99.90;;;;;;5041017;28;19913;-68
2023/04/13 08:45:45;;;;;;;;;;;10.30;99.90;;;;;;5040584;28;19909;-67
2023/04/13 08:48:12;;;;;;;;;;;10.20;99.90;;;;;;5040627;28;19916;-68
2023/04/13 08:50:37;;;;;;;;;;;10.20;99.90;;;;;;5040106;28;19905;-67
2023/04/13 08:53:03;;;;;;;;;;;10.20;99.90;;;;;;5039755;28;19912;-68
2023/04/13 08:55:28;;;;;;;;;;;10.30;99.90;;;;;;5040337;28;19936;-68
2023/04/13 08:57:56;;;;;;;;;;;10.80;99.90;;;;;;5022436;28;19905;-68
2023/04/13 09:00:22;;;;;;;;;;;11.10;99.90;;;;;;5040389;28;19951;-68
2023/04/13 09:02:53;;;;;;;;;;;11.30;99.90;;;;;;5022017;28;19952;-67
2023/04/13 09:05:20;;;;;;;;;;;11.80;99.90;;;;;;5040603;28;19905;-68
2023/04/13 09:07:55;;;;;;;;;;;13.70;99.90;;;;;;5039444;28;19920;-68
2023/04/13 09:10:22;;;;;;;;;;;14.60;99.90;;;;;;5038728;28;19901;-69
2023/04/13 09:12:49;;;;;;;;;;;15.30;99.90;;;;;;5035308;28;20011;-68
2023/04/13 09:15:15;;;;;;;;;;;16.10;99.90;;;;;;5031562;28;19927;-68
2023/04/13 09:17:41;;;;;;;;;;;18.10;97.30;;;;;;5020281;28;19913;-67
2023/04/13 09:20:17;;;;;;;;;;;19.80;94.40;;;;;;5020639;28;19964;-68
2023/04/13 09:22:43;;;;;;;;;;;20.60;91.50;;;;;;5020052;28;19996;-68
2023/04/13 09:25:18;;;;;;;;;;;20.30;91.50;;;;;;5019074;28;19945;-67
2023/04/13 09:27:44;;;;;;;;;;;20.00;91.40;;;;;;5019322;28;19905;-69
2023/04/13 09:30:10;;;;;;;;;;;18.40;92.20;;;;;;5018982;28;20281;-68
2023/04/13 09:32:35;;;;;;;;;;;18.10;94.10;;;;;;5020006;28;19997;-69
2023/04/13 09:35:03;;;;;;;;;;;18.80;92.90;;;;;;5020050;28;19943;-69
2023/04/13 09:37:32;;;;;;;;;;;20.10;91.70;;;;;;5020411;28;20379;-68
2023/04/13 09:40:08;;;;;;;;;;;21.10;90.00;;;;;;5039436;28;19912;-68
2023/04/13 09:42:34;;;;;;;;;;;19.60;87.40;;;;;;5021364;28;19909;-69
2023/04/13 09:44:59;;;;;;;;;;;18.50;90.20;;;;;;5025415;28;19916;-68
2023/04/13 09:47:33;;;;;;;;;;;18.10;92.00;;;;;;5039656;28;19912;-69
2023/04/13 09:49:59;;;;;;;;;;;17.90;91.40;;;;;;5018375;28;20330;-69
2023/04/13 09:52:24;;;;;;;;;;;17.30;92.10;;;;;;5036876;28;19909;-69
2023/04/13 09:54:59;;;;;;;;;;;17.40;91.40;;;;;;5019080;28;20315;-68
2023/04/13 09:57:26;;;;;;;;;;;17.60;90.90;;;;;;5046163;28;19916;-68
2023/04/13 09:59:51;;;;;;;;;;;18.60;90.60;;;;;;5027130;28;19980;-68
2023/04/13 10:02:18;;;;;;;;;;;18.70;90.40;;;;;;5044511;28;19970;-69
2023/04/13 10:04:43;;;;;;;;;;;17.80;90.40;;;;;;5035700;28;19909;-68
2023/04/13 10:07:09;;;;;;;;;;;16.40;91.60;;;;;;5031293;28;19905;-68
2023/04/13 10:09:35;;;;;;;;;;;15.80;93.60;;;;;;5033525;28;19913;-68
2023/04/13 10:12:02;;;;;;;;;;;15.30;94.70;;;;;;5018594;28;19916;-69
2023/04/13 10:14:31;;;;;;;;;;;15.00;95.70;;;;;;5018291;28;20016;-69
2023/04/13 10:17:04;;;;;;;;;;;14.50;95.30;;;;;;5018597;28;19952;-68
2023/04/13 10:19:31;;;;;;;;;;;13.80;96.80;;;;;;5020911;28;19960;-68
2023/04/13 10:21:57;;;;;;;;;;;13.60;97.10;;;;;;5021986;28;19909;-69
2023/04/13 10:24:23;;;;;;;;;;;13.50;97.10;;;;;;5013985;28;20417;-69
2023/04/13 10:26:53;;;;;;;;;;;13.10;98.40;;;;;;5026519;28;19948;-69
2023/04/13 10:29:26;;;;;;;;;;;12.80;99.80;;;;;;4998695;28;19937;-68
2023/04/13 10:31:53;;;;;;;;;;;12.60;99.60;;;;;;5015845;28;19959;-69
2023/04/13 10:34:26;;;;;;;;;;;12.50;99.80;;;;;;5015807;28;19905;-68
2023/04/13 10:36:54;;;;;;;;;;;12.30;99.90;;;;;;5022673;28;19906;-69
2023/04/13 10:39:27;;;;;;;;;;;12.20;99.90;;;;;;5036324;28;19916;-69
2023/04/13 10:42:03;;;;;;;;;;;12.20;99.90;;;;;;5019211;28;19995;-69
2023/04/13 10:44:45;;;;;;;;;;;12.20;99.90;;;;;;5037128;28;20335;-70
2023/04/13 10:47:11;;;;;;;;;;;12.50;99.90;;;;;;5036786;28;19905;-68
2023/04/13 10:49:37;;;;;;;;;;;12.50;99.90;;;;;;5018542;28;19905;-67
2023/04/13 10:52:02;;;;;;;;;;;12.50;99.90;;;;;;5024190;28;20289;-69
2023/04/13 10:54:29;;;;;;;;;;;13.00;99.90;;;;;;5011042;28;19997;-70
2023/04/13 10:57:02;;;;;;;;;;;13.70;99.20;;;;;;5017099;28;20354;-69
2023/04/13 10:59:55;;;;;;;;;;;13.90;98.30;;;;;;5019358;28;19972;-69
2023/04/13 11:02:23;;;;;;;;;;;13.40;98.80;;;;;;5015339;28;19959;-69
2023/04/13 11:04:49;;;;;;;;;;;13.70;99.00;;;;;;5033630;28;20260;-68
2023/04/13 11:07:15;;;;;;;;;;;13.60;98.80;;;;;;5017850;28;19999;-68
2023/04/13 11:09:41;;;;;;;;;;;13.70;98.90;;;;;;5035279;28;19920;-68
2023/04/13 11:12:07;;;;;;;;;;;14.00;98.50;;;;;;5036035;28;19909;-69
2023/04/13 11:14:35;;;;;;;;;;;14.00;98.40;;;;;;5023560;28;19905;-68
2023/04/13 11:17:01;;;;;;;;;;;13.70;98.60;;;;;;5019852;28;19966;-68
2023/04/13 11:19:26;;;;;;;;;;;13.40;99.40;;;;;;5035440;28;19972;-68
2023/04/13 11:21:53;;;;;;;;;;;13.10;99.80;;;;;;5017406;28;19909;-68
2023/04/13 11:24:23;;;;;;;;;;;13.20;99.90;;;;;;5035545;28;19936;-68
2023/04/13 11:26:48;;;;;;;;;;;13.30;99.70;;;;;;5022200;28;20023;-68
2023/04/13 11:29:17;;;;;;;;;;;13.50;99.50;;;;;;5017797;28;19948;-69
2023/04/13 11:31:43;;;;;;;;;;;13.60;99.90;;;;;;5017383;28;20297;-68
2023/04/13 11:34:10;;;;;;;;;;;13.60;99.10;;;;;;5036049;28;20332;-67
2023/04/13 11:36:37;;;;;;;;;;;13.40;99.90;;;;;;5019117;28;20415;-68
2023/04/13 11:39:04;;;;;;;;;;;13.10;99.60;;;;;;5024539;28;19916;-67
2023/04/13 11:41:31;;;;;;;;;;;13.10;99.90;;;;;;5001833;28;19910;-67
2023/04/13 11:43:59;;;;;;;;;;;13.10;99.10;;;;;;5020240;28;19905;-68
2023/04/13 11:46:25;;;;;;;;;;;13.10;98.60;;;;;;5018391;28;20004;-67
2023/04/13 11:48:51;;;;;;;;;;;13.30;98.20;;;;;;5016505;28;19933;-67
2023/04/13 11:51:20;;;;;;;;;;;13.30;98.50;;;;;;4995777;28;20003;-67
2023/04/13 11:53:46;;;;;;;;;;;13.60;98.30;;;;;;5014465;28;19906;-67
2023/04/13 11:56:13;;;;;;;;;;;13.90;96.90;;;;;;4996871;28;19905;-68
2023/04/13 11:58:39;;;;;;;;;;;14.00;96.50;;;;;;5015034;28;19927;-67
2023/04/13 12:01:06;;;;;;;;;;;14.40;96.30;;;;;;5014684;28;20361;-67
2023/04/13 12:03:32;;;;;;;;;;;14.50;95.50;;;;;;5014483;28;19905;-68
2023/04/13 12:05:59;;;;;;;;;;;14.40;95.30;;;;;;5014441;28;19906;-66
2023/04/13 12:08:25;;;;;;;;;;;14.30;95.10;;;;;;5022092;28;19912;-68
2023/04/13 12:10:54;;;;;;;;;;;14.40;95.70;;;;;;5034038;28;19905;-67
2023/04/13 12:13:20;;;;;;;;;;;14.70;94.60;;;;;;5034138;28;19948;-67
2023/04/13 12:15:46;;;;;;;;;;;14.70;94.60;;;;;;5032917;28;19912;-67
2023/04/13 12:18:11;;;;;;;;;;;14.70;94.40;;;;;;5034485;28;20285;-67
2023/04/13 12:20:38;;;;;;;;;;;14.60;94.60;;;;;;5034279;28;19912;-67
2023/04/13 12:23:15;;;;;;;;;;;14.70;94.60;;;;;;5034315;28;19905;-67
2023/04/13 12:25:40;;;;;;;;;;;14.70;94.80;;;;;;5034224;28;20047;-68
2023/04/13 12:28:06;;;;;;;;;;;14.70;94.70;;;;;;5034220;28;19913;-68
2023/04/13 12:30:31;;;;;;;;;;;14.40;95.20;;;;;;5034460;28;19909;-68
2023/04/13 12:32:57;;;;;;;;;;;14.30;95.30;;;;;;5034021;28;19909;-68
2023/04/13 12:35:22;;;;;;;;;;;14.20;96.40;;;;;;5033530;28;19992;-68
2023/04/13 12:37:49;;;;;;;;;;;14.10;96.90;;;;;;5033595;28;19945;-67
2023/04/13 12:40:15;;;;;;;;;;;14.10;96.40;;;;;;5033343;28;20334;-67
2023/04/13 12:42:41;;;;;;;;;;;14.00;96.00;;;;;;5015910;28;19909;-67
2023/04/13 12:45:07;;;;;;;;;;;14.00;95.60;;;;;;5033063;28;19948;-67
2023/04/13 12:47:32;;;;;;;;;;;14.10;96.00;;;;;;5033318;28;19909;-67
2023/04/13 12:49:58;;;;;;;;;;;14.50;95.80;;;;;;5033680;28;19905;-67
2023/04/13 12:52:25;;;;;;;;;;;14.50;94.80;;;;;;5033557;28;19996;-68
2023/04/13 12:54:51;;;;;;;;;;;14.30;95.10;;;;;;5033049;28;20396;-66
2023/04/13 12:57:16;;;;;;;;;;;13.80;96.50;;;;;;5033447;28;19905;-67
2023/04/13 12:59:42;;;;;;;;;;;13.80;97.10;;;;;;5033723;28;20380;-66
2023/04/13 13:02:08;;;;;;;;;;;13.70;96.70;;;;;;5033578;28;19906;-68
2023/04/13 13:04:33;;;;;;;;;;;13.40;98.20;;;;;;5033353;28;20388;-66
2023/04/13 13:06:59;;;;;;;;;;;13.40;98.20;;;;;;5033079;28;19912;-67
2023/04/13 13:09:25;;;;;;;;;;;13.40;98.10;;;;;;5032871;28;19921;-68
2023/04/13 13:11:51;;;;;;;;;;;13.60;98.10;;;;;;5026624;28;19913;-66
2023/04/13 13:14:19;;;;;;;;;;;13.90;98.20;;;;;;5030312;28;20428;-68
2023/04/13 13:16:44;;;;;;;;;;;14.00;99.90;;;;;;5030969;28;20011;-67
2023/04/13 13:19:10;;;;;;;;;;;13.90;99.90;;;;;;5029577;28;19944;-67
2023/04/13 13:21:35;;;;;;;;;;;13.50;99.90;;;;;;5033465;28;19912;-66
2023/04/13 13:24:01;;;;;;;;;;;13.10;99.90;;;;;;5033434;28;19905;-67
2023/04/13 13:26:26;;;;;;;;;;;12.90;99.90;;;;;;5016302;28;20002;-67
2023/04/13 13:28:52;;;;;;;;;;;12.90;99.90;;;;;;5037646;28;19913;-67
2023/04/13 13:31:18;;;;;;;;;;;12.80;99.90;;;;;;5019137;28;19909;-68
2023/04/13 13:33:43;;;;;;;;;;;12.90;99.90;;;;;;5036659;28;19975;-67
2023/04/13 13:36:09;;;;;;;;;;;12.90;99.90;;;;;;5037447;28;20400;-67
2023/04/13 13:38:35;;;;;;;;;;;13.10;99.90;;;;;;5037908;28;20420;-66
2023/04/13 13:41:00;;;;;;;;;;;13.20;99.90;;;;;;5019443;28;19905;-66
2023/04/13 13:43:26;;;;;;;;;;;12.90;99.90;;;;;;5037280;28;19905;-66
2023/04/13 13:45:51;;;;;;;;;;;12.90;99.90;;;;;;5019225;28;19905;-65
2023/04/13 13:48:17;;;;;;;;;;;13.10;99.90;;;;;;5037966;28;19992;-67
2023/04/13 13:50:42;;;;;;;;;;;13.20;99.90;;;;;;5019740;28;20303;-67
2023/04/13 13:53:08;;;;;;;;;;;13.50;99.90;;;;;;5037972;28;19905;-67
2023/04/13 13:55:33;;;;;;;;;;;13.80;99.90;;;;;;5037034;28;19905;-69
2023/04/13 13:57:58;;;;;;;;;;;13.90;99.90;;;;;;5037006;28;20411;-66
2023/04/13 14:00:24;;;;;;;;;;;13.90;99.90;;;;;;5037505;28;19908;-66
2023/04/13 14:02:50;;;;;;;;;;;14.00;99.90;;;;;;5037311;28;19905;-66
2023/04/13 14:05:16;;;;;;;;;;;13.70;99.90;;;;;;5036839;28;19905;-68
2023/04/13 14:07:42;;;;;;;;;;;13.60;99.60;;;;;;5036440;28;19913;-66
2023/04/13 14:10:08;;;;;;;;;;;13.40;99.30;;;;;;5036780;28;20289;-66
2023/04/13 14:12:34;;;;;;;;;;;13.20;99.90;;;;;;5018045;28;19909;-68
2023/04/13 14:14:59;;;;;;;;;;;13.20;99.40;;;;;;5036083;28;19912;-68
2023/04/13 14:17:25;;;;;;;;;;;13.30;99.60;;;;;;5036166;28;19963;-69
2023/04/13 14:19:50;;;;;;;;;;;13.50;98.20;;;;;;5036197;28;19912;-68